Time;durP1;ratioP1;P1;durP2;ratioP2;P2;SDS_P1;SDS_P2;PMS_P1;PMS_P2;Temp;Humidity;BMP_temperature;BMP_pressure;BME280_temperature;BME280_humidity;BME280_pressure;Samples;Min_cycle;Max_cycle;Signal;HPM_P1;HPM_P2
2021/12/31 00:00:04;;;;;;;1.47;1.37;;;;;;;;;;4962616;28;20742;-64
2021/12/31 00:02:32;;;;;;;1.70;1.60;;;;;;;;;;4967373;28;20264;-64
2021/12/31 00:04:59;;;;;;;1.30;1.20;;;;;;;;;;4960829;28;20228;-65
2021/12/31 00:07:27;;;;;;;1.43;1.40;;;;;;;;;;4996961;28;20208;-66
2021/12/31 00:09:59;;;;;;;1.30;1.20;;;;;;;;;;4990237;28;20267;-64
2021/12/31 00:12:30;;;;;;;1.53;1.37;;;;;;;;;;4970340;28;20204;-65
2021/12/31 00:14:58;;;;;;;2.37;1.40;;;;;;;;;;4965153;28;23553;-65
2021/12/31 00:17:25;;;;;;;1.43;1.33;;;;;;;;;;4963616;28;20229;-64
2021/12/31 00:20:14;;;;;;;1.37;1.30;;;;;;;;;;4961012;28;20215;-64
2021/12/31 00:23:03;;;;;;;1.93;1.40;;;;;;;;;;4946518;28;20662;-65
2021/12/31 00:25:35;;;;;;;1.30;1.20;;;;;;;;;;4951234;28;20881;-64
2021/12/31 00:28:04;;;;;;;1.27;1.17;;;;;;;;;;4965368;28;20360;-64
2021/12/31 00:30:31;;;;;;;2.20;1.63;;;;;;;;;;4959372;28;20219;-63
2021/12/31 00:33:01;;;;;;;2.00;1.90;;;;;;;;;;4960886;28;20201;-65
2021/12/31 00:35:30;;;;;;;5.70;3.83;;;;;;;;;;4957371;28;20220;-64
2021/12/31 00:37:58;;;;;;;6.10;5.00;;;;;;;;;;4971417;28;20209;-64
2021/12/31 00:40:28;;;;;;;4.13;3.73;;;;;;;;;;4955707;28;20262;-64
2021/12/31 00:42:56;;;;;;;5.27;2.47;;;;;;;;;;4961338;28;20274;-63
2021/12/31 00:45:24;;;;;;;2.47;2.10;;;;;;;;;;4958901;28;20224;-65
2021/12/31 00:47:52;;;;;;;1.90;1.53;;;;;;;;;;4965214;28;20224;-63
2021/12/31 00:50:19;;;;;;;2.57;2.10;;;;;;;;;;4959623;28;20200;-65
2021/12/31 00:52:47;;;;;;;2.87;2.47;;;;;;;;;;4954010;28;20235;-64
2021/12/31 00:55:15;;;;;;;2.43;2.03;;;;;;;;;;4962295;28;20221;-65
2021/12/31 00:57:42;;;;;;;3.53;2.17;;;;;;;;;;4962523;28;20232;-62
2021/12/31 01:00:12;;;;;;;1.50;1.40;;;;;;;;;;4950439;28;20207;-64
2021/12/31 01:02:40;;;;;;;2.10;1.80;;;;;;;;;;4958816;28;20312;-65
2021/12/31 01:05:08;;;;;;;2.30;1.33;;;;;;;;;;4964208;28;20228;-65
2021/12/31 01:07:35;;;;;;;1.87;1.70;;;;;;;;;;4967061;28;20211;-63
2021/12/31 01:10:04;;;;;;;1.80;1.70;;;;;;;;;;4963235;28;20204;-65
2021/12/31 01:12:32;;;;;;;1.67;1.57;;;;;;;;;;4972848;28;20694;-65
2021/12/31 01:15:06;;;;;;;2.60;1.57;;;;;;;;;;4965350;28;20251;-64
2021/12/31 01:20:11;;;;;;;1.47;1.37;;;;;;;;;;4975966;28;20209;-64
2021/12/31 01:22:39;;;;;;;1.60;1.50;;;;;;;;;;4956032;28;20216;-64
2021/12/31 01:25:07;;;;;;;1.37;1.30;;;;;;;;;;4972103;28;20286;-64
2021/12/31 01:27:34;;;;;;;2.40;1.20;;;;;;;;;;4966544;28;20723;-63
2021/12/31 01:30:03;;;;;;;2.27;1.43;;;;;;;;;;4979876;28;20213;-65
2021/12/31 01:32:31;;;;;;;1.97;1.40;;;;;;;;;;4965866;28;20208;-66
2021/12/31 01:34:59;;;;;;;1.50;1.40;;;;;;;;;;4971103;28;20239;-64
2021/12/31 01:37:27;;;;;;;1.87;1.47;;;;;;;;;;4961375;28;20229;-65
2021/12/31 01:39:55;;;;;;;1.80;1.57;;;;;;;;;;4960705;28;20260;-65
2021/12/31 01:42:29;;;;;;;1.80;1.50;;;;;;;;;;4953409;28;20231;-65
2021/12/31 01:45:00;;;;;;;1.97;1.87;;;;;;;;;;4975416;28;20223;-65
2021/12/31 01:47:36;;;;;;;1.73;1.63;;;;;;;;;;4968113;28;20219;-65
2021/12/31 01:50:08;;;;;;;1.83;1.70;;;;;;;;;;4964092;28;20351;-65
2021/12/31 01:52:35;;;;;;;1.57;1.47;;;;;;;;;;4956576;28;20212;-64
2021/12/31 01:55:04;;;;;;;1.40;1.30;;;;;;;;;;4976549;28;20273;-65
2021/12/31 01:57:32;;;;;;;1.30;1.20;;;;;;;;;;4964231;28;20232;-63
2021/12/31 02:00:00;;;;;;;1.50;1.40;;;;;;;;;;4965096;28;20209;-65
2021/12/31 02:02:27;;;;;;;1.57;1.40;;;;;;;;;;4955003;28;20220;-64
2021/12/31 02:04:55;;;;;;;2.27;1.30;;;;;;;;;;4967641;28;20753;-65
2021/12/31 02:07:23;;;;;;;2.37;1.60;;;;;;;;;;4963983;28;20208;-64
2021/12/31 02:09:54;;;;;;;2.73;1.90;;;;;;;;;;4967584;28;20616;-65
2021/12/31 02:12:22;;;;;;;3.40;1.90;;;;;;;;;;4959180;28;21753;-64
2021/12/31 02:14:51;;;;;;;1.60;1.50;;;;;;;;;;4981374;28;20225;-65
2021/12/31 02:17:19;;;;;;;1.27;1.20;;;;;;;;;;4962587;28;20224;-63
2021/12/31 02:20:05;;;;;;;2.07;1.27;;;;;;;;;;4960810;28;20213;-64
2021/12/31 02:22:38;;;;;;;1.70;1.40;;;;;;;;;;4954140;28;20204;-65
2021/12/31 02:25:06;;;;;;;1.57;1.43;;;;;;;;;;4963612;28;20263;-65
2021/12/31 02:27:40;;;;;;;1.83;1.33;;;;;;;;;;4963769;28;20205;-64
2021/12/31 02:30:09;;;;;;;1.37;1.20;;;;;;;;;;4963003;28;21744;-65
2021/12/31 02:32:37;;;;;;;1.60;1.47;;;;;;;;;;4966978;28;20201;-65
2021/12/31 02:35:05;;;;;;;1.57;1.47;;;;;;;;;;4965719;28;20323;-65
2021/12/31 02:37:33;;;;;;;1.50;1.40;;;;;;;;;;4958586;28;20236;-64
2021/12/31 02:40:05;;;;;;;1.80;1.40;;;;;;;;;;4956253;28;20209;-65
2021/12/31 02:42:32;;;;;;;3.20;1.80;;;;;;;;;;4967071;28;20204;-63
2021/12/31 02:45:00;;;;;;;4.53;2.20;;;;;;;;;;4968846;28;20732;-64
2021/12/31 02:47:28;;;;;;;4.20;2.37;;;;;;;;;;4964315;28;20212;-64
2021/12/31 02:49:55;;;;;;;7.33;3.97;;;;;;;;;;4954864;28;20224;-62
2021/12/31 02:52:22;;;;;;;6.50;3.53;;;;;;;;;;4959902;28;20204;-64
2021/12/31 02:54:50;;;;;;;2.37;2.17;;;;;;;;;;4957687;28;20316;-64
2021/12/31 02:57:20;;;;;;;1.67;1.57;;;;;;;;;;4976721;28;21137;-64
2021/12/31 02:59:48;;;;;;;3.07;1.40;;;;;;;;;;5000953;28;20214;-63
2021/12/31 03:02:19;;;;;;;1.73;1.53;;;;;;;;;;4972331;28;20214;-64
2021/12/31 03:04:47;;;;;;;2.23;1.80;;;;;;;;;;4966857;28;20255;-65
2021/12/31 03:07:15;;;;;;;4.90;3.00;;;;;;;;;;4959701;28;20212;-64
2021/12/31 03:09:46;;;;;;;3.60;2.07;;;;;;;;;;4969011;28;20212;-65
2021/12/31 03:12:14;;;;;;;1.60;1.50;;;;;;;;;;4970732;28;20211;-64
2021/12/31 03:14:43;;;;;;;1.73;1.60;;;;;;;;;;4971641;28;20228;-63
2021/12/31 03:17:11;;;;;;;1.43;1.33;;;;;;;;;;4964828;28;20228;-65
2021/12/31 03:19:39;;;;;;;2.73;1.40;;;;;;;;;;4961040;28;20216;-62
2021/12/31 03:22:08;;;;;;;1.63;1.50;;;;;;;;;;4975033;28;20209;-64
2021/12/31 03:24:36;;;;;;;4.73;1.70;;;;;;;;;;4981036;28;22536;-64
2021/12/31 03:27:03;;;;;;;1.73;1.57;;;;;;;;;;4964025;28;20215;-64
2021/12/31 03:29:30;;;;;;;3.63;1.60;;;;;;;;;;4966680;28;20260;-64
2021/12/31 03:31:58;;;;;;;2.00;1.40;;;;;;;;;;4960161;28;20208;-64
2021/12/31 03:34:25;;;;;;;1.40;1.30;;;;;;;;;;4954801;28;20233;-64
2021/12/31 03:36:55;;;;;;;1.43;1.40;;;;;;;;;;4960213;28;20240;-64
2021/12/31 03:39:22;;;;;;;1.73;1.57;;;;;;;;;;4961669;28;20224;-63
2021/12/31 03:41:50;;;;;;;3.43;2.10;;;;;;;;;;4962862;28;20204;-65
2021/12/31 03:44:18;;;;;;;1.80;1.70;;;;;;;;;;4966524;28;20232;-65
2021/12/31 03:46:45;;;;;;;1.70;1.60;;;;;;;;;;4961326;28;20208;-64
2021/12/31 03:49:13;;;;;;;1.57;1.47;;;;;;;;;;4962714;28;20690;-64
2021/12/31 03:51:40;;;;;;;1.33;1.33;;;;;;;;;;4956282;28;20221;-64
2021/12/31 03:54:08;;;;;;;2.40;1.43;;;;;;;;;;4965433;28;20338;-65
2021/12/31 03:56:35;;;;;;;1.93;1.30;;;;;;;;;;4953573;28;20224;-64
2021/12/31 03:59:03;;;;;;;1.60;1.50;;;;;;;;;;4982931;28;20305;-65
2021/12/31 04:01:30;;;;;;;3.23;1.77;;;;;;;;;;4964987;28;20646;-65
2021/12/31 04:03:58;;;;;;;1.50;1.40;;;;;;;;;;4969124;28;20233;-65
2021/12/31 04:06:25;;;;;;;1.60;1.50;;;;;;;;;;4983849;28;20200;-65
2021/12/31 04:08:52;;;;;;;1.37;1.27;;;;;;;;;;4989750;28;20213;-65
2021/12/31 04:11:20;;;;;;;1.80;1.70;;;;;;;;;;4964624;28;20287;-64
2021/12/31 04:13:47;;;;;;;2.63;1.40;;;;;;;;;;4956617;28;20235;-64
2021/12/31 04:16:15;;;;;;;1.97;1.50;;;;;;;;;;4960491;28;20204;-64
2021/12/31 04:18:42;;;;;;;1.73;1.63;;;;;;;;;;4955334;28;20212;-64
2021/12/31 04:21:10;;;;;;;2.60;2.27;;;;;;;;;;4958384;28;20197;-64
2021/12/31 04:23:48;;;;;;;3.67;2.50;;;;;;;;;;4966552;28;20200;-64
2021/12/31 04:26:16;;;;;;;2.87;2.47;;;;;;;;;;4962489;28;20208;-66
2021/12/31 04:28:44;;;;;;;4.60;3.00;;;;;;;;;;4956291;28;20215;-65
2021/12/31 04:31:12;;;;;;;3.23;2.63;;;;;;;;;;4956135;28;20292;-65
2021/12/31 04:33:40;;;;;;;2.30;2.10;;;;;;;;;;4974121;28;20263;-65
2021/12/31 04:36:08;;;;;;;2.80;2.50;;;;;;;;;;4964254;28;20266;-64
2021/12/31 04:38:35;;;;;;;2.73;2.50;;;;;;;;;;4965501;28;20236;-63
2021/12/31 04:41:03;;;;;;;3.00;2.67;;;;;;;;;;4951592;28;20214;-65
2021/12/31 04:43:30;;;;;;;3.10;2.80;;;;;;;;;;4960898;28;20215;-64
2021/12/31 04:45:58;;;;;;;3.00;2.70;;;;;;;;;;4972288;28;20710;-64
2021/12/31 04:48:25;;;;;;;3.97;2.83;;;;;;;;;;4960249;28;20224;-64
2021/12/31 04:50:52;;;;;;;3.90;3.50;;;;;;;;;;4968800;28;20627;-65
2021/12/31 04:53:20;;;;;;;2.90;2.70;;;;;;;;;;4964624;28;20208;-64
2021/12/31 04:55:47;;;;;;;3.97;3.30;;;;;;;;;;4946333;28;20221;-65
2021/12/31 04:58:15;;;;;;;3.77;3.00;;;;;;;;;;4961109;28;20714;-63
2021/12/31 05:00:42;;;;;;;5.00;3.70;;;;;;;;;;4969179;28;20717;-64
2021/12/31 05:03:10;;;;;;;6.40;3.97;;;;;;;;;;4945813;28;20358;-65
2021/12/31 05:05:38;;;;;;;5.57;3.77;;;;;;;;;;4960116;28;20283;-65
2021/12/31 05:08:05;;;;;;;5.73;4.53;;;;;;;;;;4954833;28;20259;-65
2021/12/31 05:10:33;;;;;;;7.30;4.80;;;;;;;;;;4963518;28;20208;-65
2021/12/31 05:13:02;;;;;;;5.93;4.50;;;;;;;;;;4971245;28;20598;-64
2021/12/31 05:15:34;;;;;;;5.83;4.47;;;;;;;;;;4955805;28;20282;-64
2021/12/31 05:18:02;;;;;;;9.17;4.67;;;;;;;;;;4962798;28;20231;-65
2021/12/31 05:20:30;;;;;;;7.90;4.77;;;;;;;;;;4973281;28;20211;-65
2021/12/31 05:23:00;;;;;;;8.77;4.87;;;;;;;;;;4967392;28;20793;-64
2021/12/31 05:25:28;;;;;;;5.80;4.37;;;;;;;;;;4975227;28;20228;-64
2021/12/31 05:27:55;;;;;;;8.00;4.67;;;;;;;;;;4968610;28;20219;-63
2021/12/31 05:30:23;;;;;;;6.43;4.77;;;;;;;;;;4961911;28;20271;-65
2021/12/31 05:32:50;;;;;;;8.27;4.50;;;;;;;;;;4957337;28;20208;-64
2021/12/31 05:35:18;;;;;;;6.40;4.93;;;;;;;;;;4961751;28;20773;-65
2021/12/31 05:37:45;;;;;;;6.50;4.70;;;;;;;;;;4969598;28;20228;-65
2021/12/31 05:40:13;;;;;;;7.97;5.20;;;;;;;;;;4977613;28;20659;-64
2021/12/31 05:42:40;;;;;;;9.27;5.97;;;;;;;;;;4963618;28;20201;-64
2021/12/31 05:45:09;;;;;;;7.93;6.00;;;;;;;;;;4959417;28;20220;-65
2021/12/31 05:47:38;;;;;;;9.30;6.53;;;;;;;;;;4959859;28;20663;-64
2021/12/31 05:50:08;;;;;;;10.17;6.70;;;;;;;;;;4960901;28;20278;-64
2021/12/31 05:52:35;;;;;;;9.27;6.67;;;;;;;;;;4962933;28;20212;-65
2021/12/31 05:55:05;;;;;;;10.60;6.97;;;;;;;;;;4953203;28;20238;-65
2021/12/31 05:57:32;;;;;;;12.60;7.23;;;;;;;;;;4961494;28;20646;-63
2021/12/31 05:59:59;;;;;;;10.53;6.63;;;;;;;;;;4965897;28;20549;-65
2021/12/31 06:02:27;;;;;;;12.47;7.67;;;;;;;;;;4962131;28;20201;-63
2021/12/31 06:04:54;;;;;;;13.23;7.17;;;;;;;;;;4978707;28;20232;-63
2021/12/31 06:07:22;;;;;;;13.67;7.87;;;;;;;;;;4954282;28;20596;-64
2021/12/31 06:09:49;;;;;;;11.57;8.03;;;;;;;;;;4963259;28;20213;-64
2021/12/31 06:12:16;;;;;;;12.07;7.77;;;;;;;;;;4963196;28;20236;-63
2021/12/31 06:14:44;;;;;;;10.80;7.63;;;;;;;;;;4966287;28;20286;-64
2021/12/31 06:17:12;;;;;;;13.10;8.37;;;;;;;;;;4968290;28;20323;-65
2021/12/31 06:19:40;;;;;;;11.57;8.47;;;;;;;;;;4958724;28;20259;-64
2021/12/31 06:22:10;;;;;;;13.70;8.40;;;;;;;;;;4959206;28;20211;-64
2021/12/31 06:24:37;;;;;;;11.67;7.87;;;;;;;;;;4960527;28;20239;-64
2021/12/31 06:27:04;;;;;;;12.37;7.90;;;;;;;;;;4958178;28;20798;-64
2021/12/31 06:29:32;;;;;;;12.73;8.63;;;;;;;;;;4963672;28;20631;-64
2021/12/31 06:31:59;;;;;;;13.53;8.70;;;;;;;;;;4958403;28;20342;-65
2021/12/31 06:34:27;;;;;;;16.60;9.03;;;;;;;;;;4964042;28;20221;-64
2021/12/31 06:36:54;;;;;;;14.83;8.90;;;;;;;;;;4982084;28;20263;-64
2021/12/31 06:39:22;;;;;;;16.00;9.40;;;;;;;;;;4960795;28;20205;-64
2021/12/31 06:41:49;;;;;;;13.33;9.17;;;;;;;;;;4977624;28;20227;-65
2021/12/31 06:44:17;;;;;;;15.00;9.73;;;;;;;;;;4959234;28;20231;-64
2021/12/31 06:46:44;;;;;;;15.07;9.63;;;;;;;;;;4986553;28;20199;-62
2021/12/31 06:49:11;;;;;;;15.40;9.70;;;;;;;;;;5004021;28;20224;-66
2021/12/31 06:51:39;;;;;;;13.37;9.20;;;;;;;;;;4952587;28;20215;-64
2021/12/31 06:54:07;;;;;;;15.60;10.23;;;;;;;;;;4970155;28;20232;-65
2021/12/31 06:56:34;;;;;;;15.20;9.70;;;;;;;;;;4961103;28;20205;-64
2021/12/31 06:59:02;;;;;;;15.07;9.87;;;;;;;;;;4953719;28;20239;-64
2021/12/31 07:01:29;;;;;;;14.17;9.60;;;;;;;;;;4953917;28;20216;-65
2021/12/31 07:03:57;;;;;;;30.03;20.13;;;;;;;;;;4975510;28;20247;-63
2021/12/31 07:06:24;;;;;;;36.83;23.67;;;;;;;;;;4957867;28;20212;-65
2021/12/31 07:08:52;;;;;;;51.60;30.23;;;;;;;;;;4965019;28;20212;-64
2021/12/31 07:11:22;;;;;;;81.60;49.40;;;;;;;;;;4964724;28;20658;-64
2021/12/31 07:13:52;;;;;;;23.30;17.97;;;;;;;;;;4963126;28;20227;-62
2021/12/31 07:16:19;;;;;;;20.07;17.60;;;;;;;;;;4951028;28;20254;-64
2021/12/31 07:18:47;;;;;;;17.40;12.73;;;;;;;;;;4974125;28;20810;-64
2021/12/31 07:21:15;;;;;;;15.97;11.97;;;;;;;;;;4966964;28;20258;-64
2021/12/31 07:23:42;;;;;;;14.77;12.40;;;;;;;;;;4969464;28;20208;-65
2021/12/31 07:26:09;;;;;;;14.80;11.27;;;;;;;;;;4965474;28;20659;-64
2021/12/31 07:28:37;;;;;;;14.07;11.97;;;;;;;;;;4953948;28;20601;-64
2021/12/31 07:31:06;;;;;;;16.60;11.93;;;;;;;;;;4948348;28;20216;-64
2021/12/31 07:33:34;;;;;;;17.30;12.90;;;;;;;;;;4976968;28;20212;-65
2021/12/31 07:36:01;;;;;;;13.60;11.07;;;;;;;;;;4957274;28;20216;-65
2021/12/31 07:38:35;;;;;;;17.53;12.60;;;;;;;;;;4977195;28;20764;-63
2021/12/31 07:41:02;;;;;;;16.73;11.53;;;;;;;;;;4962746;28;20208;-65
2021/12/31 07:43:30;;;;;;;16.17;12.07;;;;;;;;;;4968422;28;20291;-63
2021/12/31 07:45:57;;;;;;;19.60;14.57;;;;;;;;;;4959922;28;20228;-63
2021/12/31 07:48:25;;;;;;;21.40;15.83;;;;;;;;;;4962617;28;20718;-65
2021/12/31 07:50:53;;;;;;;23.80;17.10;;;;;;;;;;4976838;28;20674;-64
2021/12/31 07:53:21;;;;;;;17.80;13.23;;;;;;;;;;4955375;28;20213;-64
2021/12/31 07:55:50;;;;;;;18.50;12.90;;;;;;;;;;4956042;28;20348;-63
2021/12/31 07:58:17;;;;;;;14.90;11.43;;;;;;;;;;4959678;28;20228;-64
2021/12/31 08:00:47;;;;;;;18.67;14.40;;;;;;;;;;4960137;28;20211;-65
2021/12/31 08:03:16;;;;;;;18.17;13.10;;;;;;;;;;4945387;28;20231;-63
2021/12/31 08:05:43;;;;;;;17.43;13.57;;;;;;;;;;4964392;28;20235;-64
2021/12/31 08:08:11;;;;;;;16.40;12.70;;;;;;;;;;4956397;28;20622;-65
2021/12/31 08:10:39;;;;;;;15.17;11.17;;;;;;;;;;4971248;28;20215;-63
2021/12/31 08:13:22;;;;;;;22.13;15.97;;;;;;;;;;4963539;28;20831;-63
2021/12/31 08:15:50;;;;;;;23.03;14.73;;;;;;;;;;4956439;28;20235;-63
2021/12/31 08:18:17;;;;;;;18.53;13.43;;;;;;;;;;4970529;28;20235;-64
2021/12/31 08:20:46;;;;;;;19.73;13.53;;;;;;;;;;4955196;28;20828;-64
2021/12/31 08:23:13;;;;;;;16.97;13.20;;;;;;;;;;4974736;28;20204;-64
2021/12/31 08:25:41;;;;;;;14.50;11.47;;;;;;;;;;4962594;28;20772;-65
2021/12/31 08:28:09;;;;;;;15.43;12.60;;;;;;;;;;4961408;28;20260;-63
2021/12/31 08:30:38;;;;;;;16.33;12.20;;;;;;;;;;4951867;28;20208;-63
2021/12/31 08:33:05;;;;;;;17.03;13.43;;;;;;;;;;4964099;28;20248;-64
2021/12/31 08:35:33;;;;;;;18.03;12.63;;;;;;;;;;4973578;28;20232;-65
2021/12/31 08:38:01;;;;;;;19.50;14.33;;;;;;;;;;4974792;28;20330;-64
2021/12/31 08:40:28;;;;;;;14.67;11.07;;;;;;;;;;4956054;28;20208;-64
2021/12/31 08:42:56;;;;;;;15.03;11.23;;;;;;;;;;4953182;28;20291;-64
2021/12/31 08:45:31;;;;;;;12.53;10.50;;;;;;;;;;4951115;28;20241;-64
2021/12/31 08:47:59;;;;;;;13.17;10.20;;;;;;;;;;4957840;28;20717;-63
2021/12/31 08:50:27;;;;;;;14.27;11.07;;;;;;;;;;4945787;28;20241;-64
2021/12/31 08:52:54;;;;;;;15.00;11.00;;;;;;;;;;4965454;28;20682;-64
2021/12/31 08:55:21;;;;;;;13.30;11.07;;;;;;;;;;4960899;28;20224;-64
2021/12/31 08:57:49;;;;;;;12.73;10.57;;;;;;;;;;4952999;28;20283;-64
2021/12/31 09:00:17;;;;;;;16.53;13.17;;;;;;;;;;4936242;28;20205;-64
2021/12/31 09:02:50;;;;;;;14.20;11.03;;;;;;;;;;4937682;28;20208;-64
2021/12/31 09:05:18;;;;;;;13.33;10.97;;;;;;;;;;4941462;28;20364;-62
2021/12/31 09:07:45;;;;;;;12.90;10.73;;;;;;;;;;4955216;28;20216;-63
2021/12/31 09:10:13;;;;;;;13.87;11.03;;;;;;;;;;4959628;28;20217;-65
2021/12/31 09:12:40;;;;;;;12.67;11.00;;;;;;;;;;4968848;28;20919;-63
2021/12/31 09:15:08;;;;;;;13.30;11.50;;;;;;;;;;4963184;28;20228;-64
2021/12/31 09:17:35;;;;;;;13.07;10.90;;;;;;;;;;4947669;28;20588;-64
2021/12/31 09:20:04;;;;;;;14.70;11.47;;;;;;;;;;4960934;28;20215;-64
2021/12/31 09:22:32;;;;;;;15.30;11.07;;;;;;;;;;4953273;28;20200;-64
2021/12/31 09:25:00;;;;;;;12.40;10.43;;;;;;;;;;4969329;28;20416;-64
2021/12/31 09:27:28;;;;;;;13.73;12.07;;;;;;;;;;4983834;28;20568;-65
2021/12/31 09:29:56;;;;;;;19.67;16.73;;;;;;;;;;4967432;28;20227;-64
2021/12/31 09:32:24;;;;;;;14.03;11.13;;;;;;;;;;4964395;28;20674;-64
2021/12/31 09:34:52;;;;;;;14.17;10.83;;;;;;;;;;4966545;28;20236;-63
2021/12/31 09:37:19;;;;;;;16.47;11.33;;;;;;;;;;4952445;28;20658;-63
2021/12/31 09:39:47;;;;;;;13.37;10.47;;;;;;;;;;4944940;28;20339;-63
2021/12/31 09:42:14;;;;;;;10.90;9.60;;;;;;;;;;4963410;28;20208;-65
2021/12/31 09:44:44;;;;;;;9.97;8.80;;;;;;;;;;4949981;28;20282;-63
2021/12/31 09:47:13;;;;;;;9.23;8.23;;;;;;;;;;4971999;28;20200;-65
2021/12/31 09:49:41;;;;;;;18.93;16.97;;;;;;;;;;4905639;28;1348034;-65
2021/12/31 09:52:09;;;;;;;17.57;15.90;;;;;;;;;;4963180;28;20205;-64
2021/12/31 09:54:39;;;;;;;12.10;11.00;;;;;;;;;;4962585;28;20232;-65
2021/12/31 09:57:11;;;;;;;9.13;8.23;;;;;;;;;;4958585;28;20323;-63
2021/12/31 09:59:40;;;;;;;8.27;7.47;;;;;;;;;;4956498;28;20236;-64
2021/12/31 10:02:11;;;;;;;11.47;10.30;;;;;;;;;;4956648;28;20201;-64
2021/12/31 10:05:01;;;;;;;9.60;8.60;;;;;;;;;;4965886;28;20259;-63
2021/12/31 10:07:30;;;;;;;9.37;7.40;;;;;;;;;;4971738;28;20625;-63
2021/12/31 10:10:05;;;;;;;9.23;8.30;;;;;;;;;;4975354;28;20265;-63
2021/12/31 10:12:52;;;;;;;8.57;7.77;;;;;;;;;;4975790;28;20217;-63
2021/12/31 10:15:22;;;;;;;7.47;6.77;;;;;;;;;;4980113;28;20255;-63
2021/12/31 10:17:50;;;;;;;6.70;6.10;;;;;;;;;;4951252;28;20204;-65
2021/12/31 10:20:17;;;;;;;5.93;5.43;;;;;;;;;;4963060;28;20613;-63
2021/12/31 10:22:46;;;;;;;6.67;6.00;;;;;;;;;;4967386;28;20219;-65
2021/12/31 10:25:26;;;;;;;6.40;5.27;;;;;;;;;;4965422;28;20221;-64
2021/12/31 10:28:08;;;;;;;5.63;5.13;;;;;;;;;;4963325;28;20223;-64
2021/12/31 10:30:39;;;;;;;6.07;5.50;;;;;;;;;;4963391;28;20224;-66
2021/12/31 10:33:08;;;;;;;5.05;4.65;;;;;;;;;;4986429;28;20208;-65
2021/12/31 10:35:44;;;;;;;4.82;4.43;;;;;;;;;;4978433;28;20224;-65
2021/12/31 10:38:12;;;;;;;4.82;4.35;;;;;;;;;;4967228;28;20210;-64
2021/12/31 10:40:43;;;;;;;4.63;4.20;;;;;;;;;;4961245;28;20575;-64
2021/12/31 10:43:17;;;;;;;4.55;4.15;;;;;;;;;;4968629;28;20205;-64
2021/12/31 10:45:56;;;;;;;4.93;4.17;;;;;;;;;;4966140;28;20220;-62
2021/12/31 10:48:37;;;;;;;4.50;4.10;;;;;;;;;;4963198;28;20215;-64
2021/12/31 10:51:05;;;;;;;4.03;3.73;;;;;;;;;;4974831;28;20208;-64
2021/12/31 10:53:33;;;;;;;4.22;3.50;;;;;;;;;;4957713;28;20220;-65
2021/12/31 10:56:06;;;;;;;3.95;3.50;;;;;;;;;;4953854;28;20239;-63
2021/12/31 10:58:33;;;;;;;3.70;3.30;;;;;;;;;;4960755;28;20283;-61
2021/12/31 11:01:02;;;;;;;3.38;3.08;;;;;;;;;;4958907;28;20220;-64
2021/12/31 11:03:31;;;;;;;3.67;3.38;;;;;;;;;;4961519;28;20293;-64
2021/12/31 11:05:59;;;;;;;3.50;3.20;;;;;;;;;;4961301;28;20224;-64
2021/12/31 11:08:27;;;;;;;3.53;3.22;;;;;;;;;;4964562;28;20204;-64
2021/12/31 11:10:57;;;;;;;3.55;3.20;;;;;;;;;;4961855;28;20208;-64
2021/12/31 11:13:28;;;;;;;2.78;2.58;;;;;;;;;;4959167;28;20209;-63
2021/12/31 11:15:55;;;;;;;2.92;2.65;;;;;;;;;;4959842;28;20224;-64
2021/12/31 11:18:26;;;;;;;3.33;2.97;;;;;;;;;;4958206;28;20291;-64
2021/12/31 11:20:56;;;;;;;2.70;2.50;;;;;;;;;;4972093;28;20209;-62
2021/12/31 11:23:28;;;;;;;2.95;2.75;;;;;;;;;;4979881;28;20208;-64
2021/12/31 11:25:57;;;;;;;3.20;2.88;;;;;;;;;;4975523;28;20228;-63
2021/12/31 11:28:30;;;;;;;2.85;2.45;;;;;;;;;;4974971;23;20248;-62
2021/12/31 11:31:18;;;;;;;2.60;2.40;;;;;;;;;;4968037;28;20290;-62
2021/12/31 11:33:47;;;;;;;2.50;2.33;;;;;;;;;;4964316;28;20212;-62
2021/12/31 11:36:15;;;;;;;2.20;2.10;;;;;;;;;;4976368;28;20209;-62
2021/12/31 11:38:44;;;;;;;2.60;2.40;;;;;;;;;;4975841;28;20242;-62
2021/12/31 11:41:20;;;;;;;2.85;2.35;;;;;;;;;;4957419;28;20364;-66
2021/12/31 11:44:10;;;;;;;2.50;2.30;;;;;;;;;;4972203;28;20291;-61
2021/12/31 11:46:41;;;;;;;2.10;1.90;;;;;;;;;;4957480;28;20388;-65
2021/12/31 11:49:19;;;;;;;2.10;2.00;;;;;;;;;;4976882;28;20208;-61
2021/12/31 11:52:01;;;;;;;1.88;1.77;;;;;;;;;;4965162;28;21206;-61
2021/12/31 11:54:29;;;;;;;2.00;1.90;;;;;;;;;;4959381;28;20696;-60
2021/12/31 11:57:01;;;;;;;2.33;2.13;;;;;;;;;;4953818;28;20209;-61
2021/12/31 11:59:49;;;;;;;1.85;1.75;;;;;;;;;;4967867;28;20713;-62
2021/12/31 12:02:20;;;;;;;1.83;1.73;;;;;;;;;;4960941;28;20201;-66
2021/12/31 12:05:03;;;;;;;1.88;1.77;;;;;;;;;;4961648;28;20272;-62
2021/12/31 12:07:38;;;;;;;1.63;1.40;;;;;;;;;;4982423;28;20264;-61
2021/12/31 12:10:06;;;;;;;1.65;1.55;;;;;;;;;;4975297;28;20211;-61
2021/12/31 12:12:34;;;;;;;1.73;1.63;;;;;;;;;;4952530;28;20266;-61
2021/12/31 12:15:03;;;;;;;1.75;1.65;;;;;;;;;;4951118;28;20785;-61
2021/12/31 12:17:33;;;;;;;1.60;1.50;;;;;;;;;;4955317;28;20208;-62
2021/12/31 12:20:04;;;;;;;1.40;1.40;;;;;;;;;;4973535;28;20322;-62
2021/12/31 12:22:37;;;;;;;2.20;1.70;;;;;;;;;;4963053;28;20212;-61
2021/12/31 12:25:07;;;;;;;1.75;1.65;;;;;;;;;;4976955;28;20235;-61
2021/12/31 12:27:35;;;;;;;1.50;1.40;;;;;;;;;;4977909;28;20233;-61
2021/12/31 12:30:05;;;;;;;1.85;1.48;;;;;;;;;;4947991;28;20215;-61
2021/12/31 12:32:39;;;;;;;1.30;1.30;;;;;;;;;;4948479;28;20212;-62
2021/12/31 12:35:21;;;;;;;1.38;1.27;;;;;;;;;;4956506;28;20234;-61
2021/12/31 12:37:58;;;;;;;1.27;1.17;;;;;;;;;;4977761;28;20259;-62
2021/12/31 12:40:44;;;;;;;1.27;1.17;;;;;;;;;;4966617;28;20652;-62
2021/12/31 12:43:16;;;;;;;1.23;1.15;;;;;;;;;;4966219;28;20223;-63
2021/12/31 12:45:45;;;;;;;1.27;1.17;;;;;;;;;;4982258;28;20220;-61
2021/12/31 12:48:12;;;;;;;1.30;1.20;;;;;;;;;;4960092;28;20204;-62
2021/12/31 12:50:47;;;;;;;1.23;1.20;;;;;;;;;;4957628;28;20209;-61
2021/12/31 12:53:22;;;;;;;1.30;1.20;;;;;;;;;;4964862;28;20728;-61
2021/12/31 12:55:49;;;;;;;1.15;1.15;;;;;;;;;;4973278;28;20223;-62
2021/12/31 12:58:25;;;;;;;1.38;1.27;;;;;;;;;;4962287;28;20262;-62
2021/12/31 13:00:56;;;;;;;1.65;1.55;;;;;;;;;;4960890;28;20227;-62
2021/12/31 13:03:25;;;;;;;1.23;1.23;;;;;;;;;;4965073;28;20204;-62
2021/12/31 13:06:03;;;;;;;1.40;1.30;;;;;;;;;;4974921;28;20220;-62
2021/12/31 13:08:31;;;;;;;1.48;1.38;;;;;;;;;;4977988;28;20204;-61
2021/12/31 13:11:00;;;;;;;1.30;1.25;;;;;;;;;;4959549;28;20220;-61
2021/12/31 13:13:31;;;;;;;1.27;1.25;;;;;;;;;;4949450;28;20208;-61
2021/12/31 13:15:59;;;;;;;1.20;1.20;;;;;;;;;;4947611;28;20247;-62
2021/12/31 13:18:30;;;;;;;2.17;1.30;;;;;;;;;;4951712;28;20212;-61
2021/12/31 13:20:59;;;;;;;1.35;1.25;;;;;;;;;;4951693;28;20240;-63
2021/12/31 13:23:27;;;;;;;1.40;1.30;;;;;;;;;;4983644;28;20624;-61
2021/12/31 13:25:54;;;;;;;1.40;1.33;;;;;;;;;;4962884;28;20275;-62
2021/12/31 13:28:23;;;;;;;1.50;1.40;;;;;;;;;;4965266;28;20216;-62
2021/12/31 13:31:10;;;;;;;2.10;1.55;;;;;;;;;;4963961;28;20208;-61
2021/12/31 13:33:39;;;;;;;2.10;2.00;;;;;;;;;;4979667;28;20287;-62
2021/12/31 13:36:10;;;;;;;1.75;1.63;;;;;;;;;;4969548;28;20201;-63
2021/12/31 13:38:56;;;;;;;1.25;1.15;;;;;;;;;;4962102;28;20483;-63
2021/12/31 13:41:24;;;;;;;1.10;1.10;;;;;;;;;;4980493;28;20580;-62
2021/12/31 13:44:12;;;;;;;1.10;1.10;;;;;;;;;;4974037;28;20236;-60
2021/12/31 13:46:44;;;;;;;1.20;1.20;;;;;;;;;;4962023;28;20217;-62
2021/12/31 13:49:14;;;;;;;1.10;1.10;;;;;;;;;;4974914;28;20216;-60
2021/12/31 13:51:42;;;;;;;1.55;1.45;;;;;;;;;;4976582;28;20200;-61
2021/12/31 13:54:16;;;;;;;1.30;1.30;;;;;;;;;;4970883;28;20221;-62
2021/12/31 13:56:45;;;;;;;1.60;1.50;;;;;;;;;;4973618;28;20252;-61
2021/12/31 13:59:23;;;;;;;2.88;1.67;;;;;;;;;;4962039;28;20302;-61
2021/12/31 14:02:06;;;;;;;2.42;2.20;;;;;;;;;;4984458;28;20200;-62
2021/12/31 14:04:54;;;;;;;2.05;1.90;;;;;;;;;;4963674;28;20228;-60
2021/12/31 14:07:29;;;;;;;2.58;2.22;;;;;;;;;;4960455;28;20212;-62
2021/12/31 14:10:01;;;;;;;2.20;2.05;;;;;;;;;;4970397;28;20275;-63
2021/12/31 14:12:52;;;;;;;1.98;1.80;;;;;;;;;;4990778;28;20290;-62
2021/12/31 14:15:21;;;;;;;3.30;3.00;;;;;;;;;;4967019;28;20227;-62
2021/12/31 14:17:50;;;;;;;5.40;3.15;;;;;;;;;;4971569;28;20697;-63
2021/12/31 14:20:20;;;;;;;6.50;5.35;;;;;;;;;;4968911;28;20278;-61
2021/12/31 14:22:50;;;;;;;5.35;4.82;;;;;;;;;;4970867;28;20219;-62
2021/12/31 14:25:22;;;;;;;3.85;3.55;;;;;;;;;;4971122;28;20350;-62
2021/12/31 14:27:49;;;;;;;2.25;2.05;;;;;;;;;;4970419;28;20204;-61
2021/12/31 14:30:19;;;;;;;2.10;2.00;;;;;;;;;;4984720;28;20266;-62
2021/12/31 14:32:47;;;;;;;2.20;2.10;;;;;;;;;;4963988;28;20208;-62
2021/12/31 14:35:20;;;;;;;2.80;2.60;;;;;;;;;;4982638;28;20717;-62
2021/12/31 14:37:47;;;;;;;2.28;2.08;;;;;;;;;;4970007;28;20208;-62
2021/12/31 14:40:19;;;;;;;2.03;1.80;;;;;;;;;;4986380;28;20248;-63
2021/12/31 14:42:50;;;;;;;1.80;1.70;;;;;;;;;;4989869;28;20204;-60
2021/12/31 14:45:18;;;;;;;2.33;2.13;;;;;;;;;;4962745;28;20227;-61
2021/12/31 14:47:47;;;;;;;2.10;2.00;;;;;;;;;;4985241;28;20196;-61
2021/12/31 14:50:15;;;;;;;1.92;1.83;;;;;;;;;;4974089;28;20208;-63
2021/12/31 14:52:44;;;;;;;2.65;2.45;;;;;;;;;;4972990;28;20204;-61